Delta Virtual Airport Information Service

Philadelphia International Airport

ICAO: KPHL Country: United States
Latitude: 39.8719 Longitude: -75.2411
Latest Arrival : AAL825 (B) (TXKF-KPHL) Latest Departure : RPA4487 (B) (KPHL-KBDL)


WX CaptureLIVE
Data provided by noaa.gov | Fetched at 18:12:31

METAR : KPHL 242254Z 09014KT 10SM BKN031 BKN250 18/12 A3020 RMK AO2 SLP225 T01830117

TAF : KPHL 242100Z 2421/2524 09008KT P6SM BKN030 TEMPO 2421/2424 SCT030 FM250200 07006KT P6SM OVC015 FM250700 05004KT P6SM OVC008 FM251300 07004KT P6SM OVC015 FM251600 11004KT P6SM BKN025 FM251900 17006KT P6SM SCT035


Runway Data for KPHL
Data provided by openaviationdata.com

Runway ID Mag Var Hdg Length Elevation Surface ILS Freq ILS Id ILS Slope
8 -10 85° 4993 ft 36 ft Asphalt -- -- --
09L -10 85° 9488 ft 36 ft Concrete 108.95 IVII 3
09R -10 85° 10486 ft 36 ft Asphalt 109.3 IPHL 3
17 -10 169° 6503 ft 36 ft Concrete 108.75 IMYY 3
26 -10 265° 4993 ft 36 ft Asphalt 111.55 ILLH 3
27L -10 265° 10486 ft 36 ft Asphalt 109.3 IGLC 3
27R -10 265° 9488 ft 36 ft Concrete 108.95 IPDP 3
35 -10 349° 6503 ft 36 ft Concrete -- -- --

Philadelphia International Airport, United States
Use only for reference purposes



Not for navigational purposes.